createdAt,value
2023-03-10T00:01:26.167Z,14.50
2023-03-10T00:03:55.660Z,13.73
2023-03-10T00:06:28.254Z,12.63
2023-03-10T00:08:55.997Z,11.70
2023-03-10T00:11:23.627Z,10.90
2023-03-10T00:13:51.027Z,13.13
2023-03-10T00:16:27.089Z,11.30
2023-03-10T00:18:54.782Z,12.27
2023-03-10T00:21:25.021Z,12.27
2023-03-10T00:23:52.813Z,11.93
2023-03-10T00:26:21.568Z,13.02
2023-03-10T00:28:49.620Z,12.23
2023-03-10T00:31:19.304Z,13.10
2023-03-10T00:33:46.742Z,13.77
2023-03-10T00:36:15.162Z,12.82
2023-03-10T00:38:43.957Z,11.88
2023-03-10T00:41:15.613Z,12.40
2023-03-10T00:43:43.613Z,12.35
2023-03-10T00:46:11.500Z,11.85
2023-03-10T00:48:39.703Z,11.73
2023-03-10T00:51:07.347Z,12.30
2023-03-10T00:53:36.671Z,11.13
2023-03-10T00:56:08.262Z,11.68
2023-03-10T00:58:36.117Z,12.30
2023-03-10T01:01:04.998Z,12.10
2023-03-10T01:03:36.098Z,11.60
2023-03-10T01:08:30.529Z,11.18
2023-03-10T01:10:57.747Z,11.55
2023-03-10T01:13:25.004Z,12.05
2023-03-10T01:15:52.649Z,11.50
2023-03-10T01:18:21.420Z,12.13
2023-03-10T01:20:49.363Z,11.18
2023-03-10T01:23:22.684Z,9.70
2023-03-10T01:25:51.107Z,11.93
2023-03-10T01:28:20.738Z,12.98
2023-03-10T01:30:48.836Z,14.73
2023-03-10T01:33:17.990Z,13.57
2023-03-10T01:35:45.663Z,13.82
2023-03-10T01:38:13.475Z,13.88
2023-03-10T01:40:41.404Z,13.88
2023-03-10T01:43:20.840Z,12.95
2023-03-10T01:45:48.293Z,9.77
2023-03-10T01:48:19.986Z,15.07
2023-03-10T01:50:56.479Z,11.70
2023-03-10T01:53:25.978Z,13.45
2023-03-10T01:55:59.081Z,13.65
2023-03-10T01:58:33.122Z,10.50
2023-03-10T02:01:01.258Z,13.85
2023-03-10T02:03:34.526Z,13.32
2023-03-10T02:06:08.868Z,13.43
2023-03-10T02:08:44.565Z,12.45
2023-03-10T02:11:14.984Z,14.68
2023-03-10T02:13:43.539Z,14.60
2023-03-10T02:16:11.302Z,14.18
2023-03-10T02:18:41.409Z,13.77
2023-03-10T02:21:28.842Z,13.05
2023-03-10T02:24:11.638Z,13.40
2023-03-10T02:26:50.545Z,14.18
2023-03-10T02:29:48.741Z,14.95
2023-03-10T02:32:25.418Z,16.45
2023-03-10T02:34:53.139Z,15.82
2023-03-10T02:37:30.644Z,16.35
2023-03-10T02:39:58.798Z,18.92
2023-03-10T02:42:35.483Z,17.95
2023-03-10T02:45:04.288Z,16.58
2023-03-10T02:47:33.082Z,16.75
2023-03-10T02:50:00.368Z,17.15
2023-03-10T02:52:44.887Z,16.67
2023-03-10T02:55:17.102Z,17.92
2023-03-10T02:57:44.971Z,17.33
2023-03-10T03:00:13.289Z,16.88
2023-03-10T03:02:41.180Z,17.42
2023-03-10T03:05:08.996Z,16.58
2023-03-10T03:07:36.343Z,16.20
2023-03-10T03:10:04.868Z,16.60
2023-03-10T03:12:32.181Z,15.35
2023-03-10T03:14:59.604Z,16.35
2023-03-10T03:17:28.101Z,16.42
2023-03-10T03:19:55.592Z,15.07
2023-03-10T03:22:23.656Z,16.55
2023-03-10T03:24:51.033Z,17.27
2023-03-10T03:27:18.433Z,15.45
2023-03-10T03:29:46.033Z,17.70
2023-03-10T03:32:14.057Z,15.52
2023-03-10T03:34:41.484Z,16.25
2023-03-10T03:37:09.856Z,17.10
2023-03-10T03:39:41.982Z,16.02
2023-03-10T03:42:10.040Z,17.60
2023-03-10T03:44:44.630Z,16.08
2023-03-10T03:47:12.709Z,16.85
2023-03-10T03:49:40.283Z,16.80
2023-03-10T03:52:08.226Z,17.27
2023-03-10T03:54:35.951Z,15.80
2023-03-10T03:57:03.797Z,16.48
2023-03-10T03:59:31.728Z,17.83
2023-03-10T04:01:59.173Z,18.20
2023-03-10T04:04:26.884Z,17.38
2023-03-10T04:06:55.924Z,20.50
2023-03-10T04:09:23.925Z,20.58
2023-03-10T04:11:51.748Z,20.35
2023-03-10T04:14:20.857Z,22.60
2023-03-10T04:16:48.378Z,24.63
2023-03-10T04:19:16.239Z,24.95
2023-03-10T04:21:47.196Z,26.88
2023-03-10T04:24:14.834Z,27.90
2023-03-10T04:26:42.867Z,25.95
2023-03-10T04:29:10.661Z,26.05
2023-03-10T04:31:41.150Z,27.92
2023-03-10T04:34:10.485Z,26.98
2023-03-10T04:36:39.425Z,26.48
2023-03-10T04:39:07.117Z,30.15
2023-03-10T04:41:34.847Z,28.10
2023-03-10T04:44:03.494Z,28.58
2023-03-10T04:46:32.766Z,28.77
2023-03-10T04:49:01.275Z,28.98
2023-03-10T04:51:28.686Z,26.38
2023-03-10T04:53:57.855Z,26.15
2023-03-10T04:56:30.054Z,23.00
2023-03-10T04:58:57.948Z,24.65
2023-03-10T05:01:26.066Z,24.08
2023-03-10T05:04:04.317Z,22.98
2023-03-10T05:06:33.091Z,22.75
2023-03-10T05:09:20.617Z,21.27
2023-03-10T05:11:51.786Z,22.27
2023-03-10T05:14:19.180Z,20.27
2023-03-10T05:16:48.807Z,20.20
2023-03-10T05:19:17.256Z,18.63
2023-03-10T05:21:45.044Z,18.70
2023-03-10T05:24:12.514Z,18.10
2023-03-10T05:26:40.091Z,18.10
2023-03-10T05:29:07.734Z,14.48
2023-03-10T05:31:56.472Z,17.52
2023-03-10T05:34:30.826Z,17.35
2023-03-10T05:37:00.973Z,16.05
2023-03-10T05:39:29.174Z,16.10
2023-03-10T05:41:59.229Z,15.82
2023-03-10T05:44:29.308Z,15.82
2023-03-10T05:46:56.736Z,17.05
2023-03-10T05:49:24.732Z,16.00
2023-03-10T05:51:53.069Z,16.73
2023-03-10T05:54:23.706Z,15.68
2023-03-10T05:56:51.222Z,13.45
2023-03-10T06:01:52.264Z,15.43
2023-03-10T06:04:19.897Z,15.45
2023-03-10T06:06:47.223Z,14.82
2023-03-10T06:09:14.433Z,15.10
2023-03-10T06:11:41.688Z,15.75
2023-03-10T06:14:09.769Z,15.00
2023-03-10T06:16:37.369Z,16.65
2023-03-10T06:19:04.626Z,16.05
2023-03-10T06:21:31.995Z,15.85
2023-03-10T06:24:00.606Z,16.35
2023-03-10T06:26:28.541Z,16.80
2023-03-10T06:28:55.947Z,16.67
2023-03-10T06:31:27.408Z,17.70
2023-03-10T06:33:58.690Z,18.08
2023-03-10T06:36:28.189Z,20.00
2023-03-10T06:38:56.835Z,18.08
2023-03-10T06:41:24.628Z,20.10
2023-03-10T06:43:51.939Z,20.02
2023-03-10T06:46:19.434Z,21.30
2023-03-10T06:48:46.883Z,22.08
2023-03-10T06:51:17.382Z,22.95
2023-03-10T06:53:44.972Z,23.77
2023-03-10T06:56:15.103Z,22.48
2023-03-10T06:58:43.431Z,19.45
2023-03-10T07:01:20.697Z,23.27
2023-03-10T07:03:48.396Z,21.98
2023-03-10T07:06:15.659Z,22.50
2023-03-10T07:08:43.075Z,21.75
2023-03-10T07:11:10.435Z,19.20
2023-03-10T07:13:39.414Z,22.33
2023-03-10T07:16:08.712Z,20.95
2023-03-10T07:18:36.100Z,22.00
2023-03-10T07:21:11.790Z,21.42
2023-03-10T07:23:40.240Z,18.10
2023-03-10T07:26:10.310Z,19.08
2023-03-10T07:28:37.995Z,20.88
2023-03-10T07:31:08.363Z,22.20
2023-03-10T07:33:36.194Z,23.95
2023-03-10T07:36:10.782Z,23.75
2023-03-10T07:38:38.492Z,22.40
2023-03-10T07:41:08.442Z,18.58
2023-03-10T07:43:36.104Z,21.15
2023-03-10T07:46:08.091Z,22.33
2023-03-10T07:48:35.684Z,22.40
2023-03-10T07:51:05.436Z,23.65
2023-03-10T07:53:33.214Z,22.57
2023-03-10T07:56:04.960Z,22.50
2023-03-10T07:58:35.512Z,23.80
2023-03-10T08:01:04.532Z,24.50
2023-03-10T08:03:34.164Z,20.65
2023-03-10T08:06:02.617Z,22.43
2023-03-10T08:08:30.205Z,23.00
2023-03-10T08:11:16.313Z,20.23
2023-03-10T08:13:46.265Z,23.98
2023-03-10T08:16:19.087Z,22.90
2023-03-10T08:18:46.497Z,17.15
2023-03-10T08:21:13.780Z,21.85
2023-03-10T08:23:41.245Z,22.17
2023-03-10T08:26:12.546Z,20.95
2023-03-10T08:28:41.368Z,23.48
2023-03-10T08:31:14.571Z,23.15
2023-03-10T08:33:43.389Z,22.10
2023-03-10T08:36:20.094Z,21.75
2023-03-10T08:38:48.140Z,23.52
2023-03-10T08:41:24.605Z,19.75
2023-03-10T08:43:54.562Z,21.67
2023-03-10T08:46:24.780Z,20.30
2023-03-10T08:48:52.148Z,21.67
2023-03-10T08:51:21.618Z,18.70
2023-03-10T08:53:50.350Z,20.75
2023-03-10T08:56:20.717Z,18.80
2023-03-10T08:58:48.478Z,19.77
2023-03-10T09:01:17.399Z,19.92
2023-03-10T09:03:45.711Z,19.15
2023-03-10T09:06:14.107Z,19.15
2023-03-10T09:08:41.746Z,20.70
2023-03-10T09:11:14.481Z,21.75
2023-03-10T09:13:41.783Z,17.58
2023-03-10T09:16:13.734Z,20.33
2023-03-10T09:18:41.653Z,21.10
2023-03-10T09:21:11.040Z,17.08
2023-03-10T09:23:41.358Z,19.05
2023-03-10T09:26:08.891Z,19.30
2023-03-10T09:28:36.739Z,21.58
2023-03-10T09:31:05.644Z,19.33
2023-03-10T09:33:33.370Z,19.45
2023-03-10T09:36:07.388Z,18.80
2023-03-10T09:38:36.262Z,19.40
2023-03-10T09:41:38.128Z,19.42
2023-03-10T09:44:26.462Z,17.15
2023-03-10T09:47:25.978Z,17.20
2023-03-10T09:50:08.233Z,16.65
2023-03-10T09:52:47.587Z,16.55
2023-03-10T09:55:17.717Z,16.60
2023-03-10T09:57:48.249Z,18.85
2023-03-10T10:00:22.641Z,17.60
2023-03-10T10:02:56.761Z,19.08
2023-03-10T10:05:27.117Z,19.33
2023-03-10T10:07:57.503Z,18.00
2023-03-10T10:10:31.395Z,17.75
2023-03-10T10:13:05.718Z,18.35
2023-03-10T10:15:38.371Z,17.30
2023-03-10T10:18:17.829Z,16.63
2023-03-10T10:20:51.394Z,14.98
2023-03-10T10:23:38.012Z,17.13
2023-03-10T10:26:23.432Z,16.67
2023-03-10T10:29:01.595Z,17.15
2023-03-10T10:31:32.182Z,17.95
2023-03-10T10:34:04.111Z,16.65
2023-03-10T10:36:48.308Z,19.88
2023-03-10T10:39:33.778Z,18.73
2023-03-10T10:42:21.090Z,16.38
2023-03-10T10:44:55.981Z,16.83
2023-03-10T10:47:36.983Z,17.98
2023-03-10T10:50:24.302Z,17.25
2023-03-10T10:53:10.946Z,17.58
2023-03-10T10:55:40.706Z,17.50
2023-03-10T10:58:44.702Z,14.43
2023-03-10T11:01:14.996Z,17.40
2023-03-10T11:03:45.067Z,16.73
2023-03-10T11:06:24.092Z,16.63
2023-03-10T11:08:52.252Z,16.60
2023-03-10T11:11:49.693Z,15.82
2023-03-10T11:14:26.613Z,14.93
2023-03-10T11:17:25.033Z,16.38
2023-03-10T11:20:23.670Z,13.57
2023-03-10T11:23:09.444Z,17.98
2023-03-10T11:26:17.614Z,18.20
2023-03-10T11:28:47.777Z,18.35
2023-03-10T11:31:38.841Z,17.92
2023-03-10T11:34:30.334Z,17.95
2023-03-10T11:37:32.339Z,19.52
2023-03-10T11:40:19.837Z,17.23
2023-03-10T11:42:59.637Z,14.50
2023-03-10T11:45:39.654Z,15.95
2023-03-10T11:48:35.279Z,12.82
2023-03-10T11:51:05.002Z,17.30
2023-03-10T11:53:44.469Z,16.45
2023-03-10T11:56:15.062Z,16.60
2023-03-10T11:59:13.637Z,16.05
2023-03-10T12:01:53.281Z,16.30
2023-03-10T12:04:35.438Z,14.95
2023-03-10T12:07:09.129Z,16.38
2023-03-10T12:09:49.358Z,17.60
2023-03-10T12:12:22.835Z,15.65
2023-03-10T12:14:51.762Z,17.73
2023-03-10T12:17:19.547Z,17.27
2023-03-10T12:20:12.023Z,16.95
2023-03-10T12:22:50.939Z,16.63
2023-03-10T12:25:30.784Z,15.98
2023-03-10T12:28:26.225Z,15.33
2023-03-10T12:30:57.765Z,16.08
2023-03-10T12:33:31.021Z,15.50
2023-03-10T12:36:27.266Z,16.92
2023-03-10T12:39:29.151Z,15.00
2023-03-10T12:42:01.453Z,15.15
2023-03-10T12:44:50.075Z,16.23
2023-03-10T12:47:40.027Z,15.38
2023-03-10T12:50:20.291Z,15.00
2023-03-10T12:52:58.239Z,14.73
2023-03-10T12:55:28.828Z,15.30
2023-03-10T12:58:10.580Z,15.02
2023-03-10T13:00:58.454Z,16.02
2023-03-10T13:03:32.031Z,14.02
2023-03-10T13:06:01.645Z,15.30
2023-03-10T13:08:39.970Z,15.27
2023-03-10T13:11:30.374Z,15.70
2023-03-10T13:14:02.134Z,16.10
2023-03-10T13:16:30.228Z,15.13
2023-03-10T13:19:00.471Z,15.73
2023-03-10T13:21:32.390Z,15.73
2023-03-10T13:24:01.748Z,14.85
2023-03-10T13:26:30.363Z,16.00
2023-03-10T13:29:00.643Z,14.63
2023-03-10T13:31:34.735Z,15.65
2023-03-10T13:34:14.309Z,15.98
2023-03-10T13:36:41.828Z,15.95
2023-03-10T13:39:18.716Z,16.48
2023-03-10T13:41:49.286Z,16.98
2023-03-10T13:44:34.183Z,16.85
2023-03-10T13:47:04.589Z,15.95
2023-03-10T13:49:35.214Z,16.30
2023-03-10T13:52:12.781Z,16.40
2023-03-10T13:54:42.817Z,16.63
2023-03-10T13:57:29.893Z,17.23
2023-03-10T13:59:59.419Z,16.85
2023-03-10T14:02:36.949Z,14.73
2023-03-10T14:05:06.924Z,17.23
2023-03-10T14:07:37.210Z,17.38
2023-03-10T14:10:04.474Z,17.00
2023-03-10T14:12:43.493Z,16.48
2023-03-10T14:15:14.969Z,17.38
2023-03-10T14:17:46.357Z,16.90
2023-03-10T14:20:32.293Z,17.75
2023-03-10T14:23:00.774Z,17.23
2023-03-10T14:25:28.081Z,15.13
2023-03-10T14:27:59.294Z,18.00
2023-03-10T14:30:31.788Z,18.77
2023-03-10T14:33:01.096Z,18.80
2023-03-10T14:35:30.903Z,18.58
2023-03-10T14:37:58.132Z,18.10
2023-03-10T14:40:25.918Z,18.02
2023-03-10T14:42:57.728Z,17.63
2023-03-10T14:45:34.412Z,18.33
2023-03-10T14:48:05.147Z,17.48
2023-03-10T14:50:33.341Z,18.10
2023-03-10T14:53:00.729Z,18.15
2023-03-10T14:55:29.080Z,20.60
2023-03-10T14:58:00.313Z,20.42
2023-03-10T15:00:27.898Z,21.77
2023-03-10T15:02:55.439Z,18.85
2023-03-10T15:05:41.410Z,17.98
2023-03-10T15:08:14.932Z,18.42
2023-03-10T15:10:44.266Z,18.13
2023-03-10T15:13:13.818Z,16.55
2023-03-10T15:15:43.830Z,15.35
2023-03-10T15:18:14.432Z,11.60
2023-03-10T15:20:41.969Z,14.98
2023-03-10T15:23:10.059Z,15.27
2023-03-10T15:25:37.368Z,14.27
2023-03-10T15:28:04.784Z,15.40
2023-03-10T15:30:38.739Z,14.45
2023-03-10T15:33:06.110Z,13.52
2023-03-10T15:35:33.901Z,16.83
2023-03-10T15:38:01.200Z,13.70
2023-03-10T15:40:31.665Z,13.75
2023-03-10T15:43:00.390Z,15.07
2023-03-10T15:45:30.468Z,14.65
2023-03-10T15:47:58.329Z,15.07
2023-03-10T15:50:26.307Z,14.50
2023-03-10T15:52:59.036Z,13.60
2023-03-10T15:55:28.285Z,11.82
2023-03-10T15:57:57.808Z,13.90
2023-03-10T16:00:26.870Z,12.63
2023-03-10T16:02:55.119Z,13.00
2023-03-10T16:05:22.857Z,13.20
2023-03-10T16:07:50.984Z,11.70
2023-03-10T16:10:20.864Z,13.57
2023-03-10T16:12:48.272Z,12.30
2023-03-10T16:15:18.232Z,12.45
2023-03-10T16:17:46.869Z,12.23
2023-03-10T16:20:14.731Z,9.93
2023-03-10T16:22:43.074Z,8.05
2023-03-10T16:25:15.417Z,8.93
2023-03-10T16:27:44.679Z,7.88
2023-03-10T16:30:17.143Z,7.97
2023-03-10T16:32:48.909Z,8.15
2023-03-10T16:35:17.928Z,10.23
2023-03-10T16:37:45.280Z,11.30
2023-03-10T16:40:12.971Z,10.25
2023-03-10T16:42:43.394Z,10.52
2023-03-10T16:45:11.255Z,10.75
2023-03-10T16:47:38.780Z,10.95
2023-03-10T16:50:07.888Z,10.48
2023-03-10T16:52:42.562Z,11.82
2023-03-10T16:55:18.508Z,10.02
2023-03-10T16:57:46.379Z,8.95
2023-03-10T17:00:15.146Z,9.60
2023-03-10T17:02:42.465Z,11.10
2023-03-10T17:05:10.378Z,10.60
2023-03-10T17:07:46.449Z,10.35
2023-03-10T17:10:21.137Z,9.00
2023-03-10T17:12:48.421Z,9.02
2023-03-10T17:15:15.704Z,9.07
2023-03-10T17:17:43.260Z,10.68
2023-03-10T17:20:11.113Z,9.55
2023-03-10T17:22:39.080Z,9.00
2023-03-10T17:25:07.916Z,8.75
2023-03-10T17:27:35.303Z,9.25
2023-03-10T17:30:03.014Z,9.45
2023-03-10T17:32:30.833Z,9.55
2023-03-10T17:34:58.236Z,5.68
2023-03-10T17:37:25.446Z,4.35
2023-03-10T17:39:55.047Z,3.80
2023-03-10T17:42:23.774Z,4.07
2023-03-10T17:44:51.277Z,2.50
2023-03-10T17:47:18.831Z,3.55
2023-03-10T17:49:46.339Z,3.00
2023-03-10T17:52:13.573Z,2.35
2023-03-10T17:54:41.092Z,1.50
2023-03-10T17:57:08.485Z,1.50
2023-03-10T17:59:39.088Z,1.58
2023-03-10T18:02:07.027Z,1.25
2023-03-10T18:04:37.165Z,1.17
2023-03-10T18:07:04.640Z,1.02
2023-03-10T18:09:32.459Z,1.73
2023-03-10T18:11:59.835Z,1.50
2023-03-10T18:14:28.506Z,0.90
2023-03-10T18:16:55.913Z,1.50
2023-03-10T18:19:23.123Z,1.13
2023-03-10T18:21:52.571Z,1.48
2023-03-10T18:24:19.965Z,1.70
2023-03-10T18:26:47.751Z,2.47
2023-03-10T18:29:15.248Z,2.35
2023-03-10T18:31:44.309Z,3.10
2023-03-10T18:34:13.230Z,3.47
2023-03-10T18:36:40.536Z,3.72
2023-03-10T18:39:07.936Z,3.90
2023-03-10T18:41:35.903Z,5.13
2023-03-10T18:44:04.988Z,5.50
2023-03-10T18:46:35.381Z,4.93
2023-03-10T18:49:02.684Z,4.60
2023-03-10T18:51:29.938Z,2.15
2023-03-10T18:53:57.239Z,3.25
2023-03-10T18:56:30.764Z,2.53
2023-03-10T18:58:58.788Z,2.50
2023-03-10T19:01:27.000Z,3.92
2023-03-10T19:03:58.326Z,3.72
2023-03-10T19:06:33.264Z,3.20
2023-03-10T19:09:01.545Z,2.17
2023-03-10T19:11:36.857Z,1.85
2023-03-10T19:14:06.477Z,1.40
2023-03-10T19:16:35.562Z,2.00
2023-03-10T19:19:04.058Z,1.30
2023-03-10T19:21:34.006Z,2.00
2023-03-10T19:24:01.382Z,1.77
2023-03-10T19:26:28.665Z,1.50
2023-03-10T19:28:56.336Z,1.33
2023-03-10T19:31:23.923Z,1.60
2023-03-10T19:33:51.325Z,1.52
2023-03-10T19:36:18.749Z,1.40
2023-03-10T19:38:46.141Z,1.63
2023-03-10T19:41:16.893Z,1.30
2023-03-10T19:43:46.838Z,1.27
2023-03-10T19:46:15.880Z,1.35
2023-03-10T19:48:44.421Z,1.20
2023-03-10T19:51:23.101Z,1.40
2023-03-10T19:53:51.957Z,1.67
2023-03-10T19:56:20.461Z,1.13
2023-03-10T19:58:49.378Z,1.20
2023-03-10T20:01:19.943Z,1.20
2023-03-10T20:06:14.600Z,1.40
2023-03-10T20:08:43.237Z,1.30
2023-03-10T20:11:14.547Z,1.30
2023-03-10T20:13:43.346Z,1.58
2023-03-10T20:16:13.145Z,1.00
2023-03-10T20:18:41.203Z,1.03
2023-03-10T20:21:08.631Z,0.98
2023-03-10T20:23:36.045Z,0.90
2023-03-10T20:26:10.169Z,0.98
2023-03-10T20:28:39.794Z,1.65
2023-03-10T20:31:08.067Z,1.10
2023-03-10T20:33:36.615Z,1.50
2023-03-10T20:36:04.808Z,1.92
2023-03-10T20:38:32.489Z,1.83
2023-03-10T20:40:59.943Z,1.95
2023-03-10T20:43:27.234Z,1.42
2023-03-10T20:46:00.554Z,1.58
2023-03-10T20:48:28.387Z,1.23
2023-03-10T20:50:56.634Z,1.20
2023-03-10T20:53:24.325Z,1.80
2023-03-10T20:55:51.636Z,1.40
2023-03-10T20:58:18.928Z,1.60
2023-03-10T21:00:47.360Z,1.40
2023-03-10T21:03:15.254Z,1.50
2023-03-10T21:05:42.943Z,2.30
2023-03-10T21:08:10.978Z,2.00
2023-03-10T21:10:39.762Z,1.65
2023-03-10T21:13:07.299Z,1.60
2023-03-10T21:15:34.825Z,1.55
2023-03-10T21:18:02.073Z,1.48
2023-03-10T21:20:29.583Z,1.30
2023-03-10T21:22:56.903Z,2.65
2023-03-10T21:25:27.047Z,1.30
2023-03-10T21:27:58.809Z,2.20
2023-03-10T21:30:29.752Z,1.65
2023-03-10T21:32:57.848Z,1.42
2023-03-10T21:35:28.260Z,1.70
2023-03-10T21:37:59.688Z,1.80
2023-03-10T21:40:28.125Z,1.88
2023-03-10T21:42:55.908Z,1.50
2023-03-10T21:45:24.335Z,1.92
2023-03-10T21:47:52.010Z,1.95
2023-03-10T21:50:20.276Z,1.67
2023-03-10T21:52:50.939Z,1.50
2023-03-10T21:57:48.801Z,2.10
2023-03-10T22:00:19.146Z,1.70
2023-03-10T22:02:49.673Z,2.15
2023-03-10T22:05:18.353Z,1.73
2023-03-10T22:07:45.818Z,2.03
2023-03-10T22:10:14.235Z,1.92
2023-03-10T22:12:41.936Z,1.98
2023-03-10T22:15:15.526Z,2.40
2023-03-10T22:17:42.856Z,1.92
2023-03-10T22:20:14.576Z,2.42
2023-03-10T22:22:41.830Z,2.25
2023-03-10T22:25:09.747Z,2.22
2023-03-10T22:27:37.138Z,2.20
2023-03-10T22:30:05.150Z,1.98
2023-03-10T22:32:33.250Z,2.10
2023-03-10T22:35:00.732Z,2.00
2023-03-10T22:37:28.039Z,2.28
2023-03-10T22:39:57.023Z,2.53
2023-03-10T22:42:24.296Z,2.38
2023-03-10T22:44:51.764Z,1.85
2023-03-10T22:47:19.134Z,1.77
2023-03-10T22:49:46.536Z,2.05
2023-03-10T22:52:13.992Z,2.13
2023-03-10T22:54:41.380Z,2.20
2023-03-10T22:57:08.913Z,1.50
2023-03-10T22:59:36.331Z,1.90
2023-03-10T23:02:03.679Z,1.70
2023-03-10T23:04:31.197Z,1.80
2023-03-10T23:06:58.507Z,1.98
2023-03-10T23:09:25.812Z,1.95
2023-03-10T23:11:56.361Z,1.85
2023-03-10T23:14:23.764Z,2.00
2023-03-10T23:16:51.037Z,1.90
2023-03-10T23:19:18.297Z,1.77
2023-03-10T23:21:46.273Z,1.83
2023-03-10T23:24:13.728Z,1.60
2023-03-10T23:26:41.296Z,2.10
2023-03-10T23:29:08.498Z,2.85
2023-03-10T23:31:36.143Z,1.77
2023-03-10T23:34:06.595Z,1.92
2023-03-10T23:36:33.962Z,3.25
2023-03-10T23:39:01.269Z,1.98
2023-03-10T23:41:28.568Z,2.03
2023-03-10T23:43:56.765Z,2.30
2023-03-10T23:46:24.172Z,1.92
2023-03-10T23:48:52.371Z,1.75
2023-03-10T23:51:19.695Z,2.33
2023-03-10T23:53:46.954Z,1.73
2023-03-10T23:56:15.391Z,2.35
2023-03-10T23:58:43.144Z,2.35
